createdAt,value
2019-02-10T00:01:06.614Z,77.95
2019-02-10T00:06:07.357Z,78.74
2019-02-10T00:10:07.445Z,77.26
2019-02-10T00:15:08.603Z,77.16
2019-02-10T00:20:07.309Z,76.69
2019-02-10T00:25:06.994Z,76.52
2019-02-10T00:30:09.057Z,77.37
2019-02-10T00:35:06.808Z,77.6
2019-02-10T00:40:07.119Z,77.81
2019-02-10T00:45:08.853Z,77.91
2019-02-10T00:49:07.088Z,78.37
2019-02-10T00:54:06.702Z,78.03
2019-02-10T00:59:07.267Z,78.3
2019-02-10T01:04:07.116Z,79.14
2019-02-10T01:09:07.046Z,78.8
2019-02-10T01:14:06.711Z,79.5
2019-02-10T01:19:07.292Z,79.73
2019-02-10T01:23:06.987Z,81.06
2019-02-10T01:28:07.469Z,81.33
2019-02-10T01:33:06.930Z,81.44
2019-02-10T01:38:07.535Z,82.45
2019-02-10T01:43:07.572Z,82.83
2019-02-10T01:48:07.158Z,82.63
2019-02-10T01:53:06.783Z,82.11
2019-02-10T01:58:07.411Z,81.65
2019-02-10T02:02:06.685Z,81.19
2019-02-10T02:07:11.140Z,81.68
2019-02-10T02:12:07.741Z,81.6
2019-02-10T02:17:07.053Z,81.11
2019-02-10T02:22:06.375Z,81.31
2019-02-10T02:27:07.251Z,81.54
2019-02-10T02:32:07.745Z,82.01
2019-02-10T02:36:07.443Z,82.6
2019-02-10T02:41:07.434Z,82.93
2019-02-10T02:46:06.794Z,83.29
2019-02-10T02:51:07.365Z,83.82
2019-02-10T02:56:06.884Z,84.31
2019-02-10T03:01:07.204Z,83.85
2019-02-10T03:06:07.681Z,84.5
2019-02-10T03:11:07.764Z,84.5
2019-02-10T03:15:09.098Z,84.85
2019-02-10T03:20:07.685Z,84.88
2019-02-10T03:25:07.260Z,84.74
2019-02-10T03:30:08.349Z,84.5
2019-02-10T03:35:07.579Z,84.67
2019-02-10T03:40:07.962Z,84.97
2019-02-10T03:45:08.665Z,84.78
2019-02-10T03:49:06.812Z,85.03
2019-02-10T03:54:07.625Z,85.51
2019-02-10T03:59:07.207Z,85.67
2019-02-10T04:04:07.019Z,85.74
2019-02-10T04:09:08.533Z,85.18
2019-02-10T04:14:06.794Z,85.31
2019-02-10T04:19:07.692Z,85.97
2019-02-10T04:24:07.029Z,85.88
2019-02-10T04:28:06.842Z,85.79
2019-02-10T04:33:07.222Z,85.59
2019-02-10T04:38:06.914Z,85.5
2019-02-10T04:43:07.062Z,85.24
2019-02-10T04:48:07.459Z,84.34
2019-02-10T04:53:07.105Z,83.95
2019-02-10T04:58:06.676Z,84.79
2019-02-10T05:02:07.061Z,85.92
2019-02-10T05:07:06.793Z,86.08
2019-02-10T05:12:07.009Z,85.79
2019-02-10T05:17:07.233Z,85.75
2019-02-10T05:22:06.955Z,85.77
2019-02-10T05:27:07.603Z,86.09
2019-02-10T05:32:07.255Z,85.67
2019-02-10T05:37:06.909Z,85.71
2019-02-10T05:41:06.618Z,85.94
2019-02-10T05:46:06.692Z,85.95
2019-02-10T05:51:07.610Z,86.53
2019-02-10T05:56:07.161Z,86.1
2019-02-10T06:01:07.360Z,86.18
2019-02-10T06:06:06.846Z,86.01
2019-02-10T06:11:06.905Z,86.11
2019-02-10T06:16:07.480Z,85.96
2019-02-10T06:20:07.231Z,85.53
2019-02-10T06:25:06.954Z,85.45
2019-02-10T06:30:08.921Z,85.23
2019-02-10T06:35:07.159Z,84.83
2019-02-10T06:40:07.161Z,84.53
2019-02-10T06:45:08.319Z,85.03
2019-02-10T06:50:07.174Z,84.92
2019-02-10T06:54:06.930Z,84.5
2019-02-10T06:59:07.538Z,84.33
2019-02-10T07:04:07.742Z,83.69
2019-02-10T07:09:07.785Z,83.62
2019-02-10T07:14:07.387Z,83.69
2019-02-10T07:19:06.998Z,83.5
2019-02-10T07:24:07.670Z,84.31
2019-02-10T07:29:07.354Z,85.52
2019-02-10T07:33:07.006Z,86.83
2019-02-10T07:38:06.681Z,87.5
2019-02-10T07:43:07.255Z,87.78
2019-02-10T07:48:07.382Z,88.39
2019-02-10T07:53:06.901Z,89.1
2019-02-10T07:58:07.440Z,89.39
2019-02-10T08:03:07.200Z,89.39
2019-02-10T08:08:06.747Z,89.26
2019-02-10T08:12:06.848Z,90.1
2019-02-10T08:17:07.396Z,90.53
2019-02-10T08:22:07.080Z,91.49
2019-02-10T08:27:06.719Z,91.95
2019-02-10T08:32:07.482Z,91.82
2019-02-10T08:37:07.080Z,91.87
2019-02-10T08:42:07.449Z,92.23
2019-02-10T08:46:07.002Z,92.14
2019-02-10T08:51:06.699Z,92.28
2019-02-10T08:56:07.374Z,92.03
2019-02-10T09:01:07.472Z,92.11
2019-02-10T09:06:07.117Z,92.3
2019-02-10T09:11:07.062Z,91.93
2019-02-10T09:16:06.890Z,92.13
2019-02-10T09:21:07.524Z,91.98
2019-02-10T09:25:07.195Z,92.21
2019-02-10T09:30:08.118Z,92.3
2019-02-10T09:35:07.288Z,92.56
2019-02-10T09:40:07.318Z,92.58
2019-02-10T09:45:07.927Z,92.73
2019-02-10T09:50:07.643Z,92.48
2019-02-10T09:55:07.358Z,91.92
2019-02-10T09:59:07.049Z,90.8
2019-02-10T10:04:06.728Z,91.07
2019-02-10T10:09:07.735Z,91.18
2019-02-10T10:14:07.231Z,91.4
2019-02-10T10:19:06.869Z,90.64
2019-02-10T10:24:07.553Z,90.93
2019-02-10T10:29:06.939Z,91.23
2019-02-10T10:33:06.888Z,90.82
2019-02-10T10:38:07.110Z,91.01
2019-02-10T10:43:07.032Z,90.68
2019-02-10T10:48:07.203Z,91.41
2019-02-10T10:53:07.195Z,90.12
2019-02-10T10:58:07.323Z,89.26
2019-02-10T11:03:07.709Z,88.87
2019-02-10T11:08:07.704Z,89.78
2019-02-10T11:12:07.567Z,89.92
2019-02-10T11:17:11.198Z,89.06
2019-02-10T11:22:06.813Z,88.52
2019-02-10T11:27:07.450Z,88.3
2019-02-10T11:32:07.504Z,88.32
2019-02-10T11:37:07.084Z,88.79
2019-02-10T11:42:07.338Z,87.1
2019-02-10T11:46:06.737Z,86.04
2019-02-10T11:51:07.299Z,85.1
2019-02-10T11:56:06.917Z,84.96
2019-02-10T12:01:07.612Z,83.64
2019-02-10T12:06:07.172Z,82.57
2019-02-10T12:11:06.985Z,81.89
2019-02-10T12:15:09.154Z,80.78
2019-02-10T12:16:07.230Z,80.78
2019-02-10T12:20:06.903Z,80.87
2019-02-10T12:25:07.468Z,79.48
2019-02-10T12:30:08.688Z,79.28
2019-02-10T12:35:07.061Z,78.76
2019-02-10T12:40:07.006Z,77.45
2019-02-10T12:45:08.682Z,76.73
2019-02-10T12:50:07.198Z,77.16
2019-02-10T12:55:06.688Z,77.27
2019-02-10T12:59:07.431Z,76.53
2019-02-10T13:04:07.335Z,77.27
2019-02-10T13:09:07.402Z,78.9
2019-02-10T13:14:06.895Z,79.23
2019-02-10T13:19:07.461Z,79.68
2019-02-10T13:24:07.003Z,79.55
2019-02-10T13:29:06.658Z,79.91
2019-02-10T13:33:07.137Z,80.09
2019-02-10T13:38:06.938Z,81.38
2019-02-10T13:43:07.582Z,82.1
2019-02-10T13:48:07.255Z,82.31
2019-02-10T13:53:06.750Z,82.13
2019-02-10T13:58:07.645Z,83.11
2019-02-10T14:03:07.521Z,83.84
2019-02-10T14:08:07.163Z,83.91
2019-02-10T14:12:07.084Z,83.69
2019-02-10T14:17:07.912Z,82.4
2019-02-10T14:22:07.121Z,82.31
2019-02-10T14:27:07.624Z,83.86
2019-02-10T14:32:06.835Z,83.18
2019-02-10T14:37:07.804Z,83.37
2019-02-10T14:42:07.424Z,82.78
2019-02-10T14:46:06.362Z,82.63
2019-02-10T14:51:07.341Z,80.61
2019-02-10T14:56:07.760Z,80.74
2019-02-10T15:01:06.909Z,80.41
2019-02-10T15:06:07.768Z,79.78
2019-02-10T15:11:06.650Z,77.36
2019-02-10T15:16:07.302Z,77.41
2019-02-10T15:21:07.563Z,75.5
2019-02-10T15:25:07.180Z,75.11
2019-02-10T15:30:08.075Z,75.33
2019-02-10T15:35:07.256Z,76.23
2019-02-10T15:40:07.471Z,75.95
2019-02-10T15:45:08.504Z,74.93
2019-02-10T15:50:07.229Z,73.69
2019-02-10T15:55:06.741Z,74.45
2019-02-10T15:59:07.725Z,73.86
2019-02-10T16:04:07.077Z,72.73
2019-02-10T16:09:08.076Z,72.98
2019-02-10T16:14:07.670Z,74.19
2019-02-10T16:19:07.259Z,72.78
2019-02-10T16:24:07.365Z,72.27
2019-02-10T16:29:06.824Z,71.8
2019-02-10T16:34:07.377Z,72.72
2019-02-10T16:38:06.955Z,72.13
2019-02-10T16:43:06.758Z,73.06
2019-02-10T16:48:07.145Z,72.97
2019-02-10T16:53:07.652Z,72.62
2019-02-10T16:58:07.162Z,72.34
2019-02-10T17:03:08.605Z,72.04
2019-02-10T17:08:07.086Z,71.84
2019-02-10T17:13:07.111Z,73.55
2019-02-10T17:17:07.371Z,73.3
2019-02-10T17:22:07.023Z,73.6
2019-02-10T17:27:07.631Z,73.61
2019-02-10T17:32:07.154Z,72.97
2019-02-10T17:37:07.053Z,74.54
2019-02-10T17:42:07.188Z,75.65
2019-02-10T17:47:06.698Z,75.25
2019-02-10T17:51:07.471Z,76.41
2019-02-10T17:56:07.117Z,76.05
2019-02-10T18:01:07.116Z,76.25
2019-02-10T18:06:06.679Z,77.03
2019-02-10T18:11:07.229Z,77.35
2019-02-10T18:16:06.921Z,78
2019-02-10T18:21:07.614Z,77.4
2019-02-10T18:26:07.225Z,77.55
2019-02-10T18:30:08.032Z,78.46
2019-02-10T18:35:06.725Z,78.26
2019-02-10T18:40:06.936Z,78.24
2019-02-10T18:45:09.379Z,77.78
2019-02-10T18:50:07.682Z,77.55
2019-02-10T18:55:07.236Z,77.15
2019-02-10T19:04:07.281Z,78.42
2019-02-10T19:09:07.256Z,78.06
2019-02-10T19:14:06.968Z,79.48
2019-02-10T19:19:07.541Z,82.1
2019-02-10T19:24:07.306Z,84.98
2019-02-10T19:29:07.209Z,85.18
2019-02-10T19:34:06.757Z,83.28
2019-02-10T19:39:07.837Z,82.87
2019-02-10T19:43:06.750Z,82.09
2019-02-10T19:48:06.925Z,81.09
2019-02-10T19:53:07.523Z,81.09
2019-02-10T19:58:07.002Z,79.29
2019-02-10T20:03:06.968Z,78.99
2019-02-10T20:08:06.652Z,79
2019-02-10T20:13:07.606Z,78.79
2019-02-10T20:18:07.053Z,78.72
2019-02-10T20:22:06.802Z,76.99
2019-02-10T20:27:07.369Z,77.26
2019-02-10T20:32:08.042Z,78.32
2019-02-10T20:37:07.037Z,80.23
2019-02-10T20:42:13.105Z,80.4
2019-02-10T20:47:07.357Z,79.82
2019-02-10T20:52:06.859Z,81.24
2019-02-10T20:56:07.574Z,84.45
2019-02-10T21:01:06.771Z,85.95
2019-02-10T21:06:07.383Z,88.3
2019-02-10T21:11:07.461Z,88.23
2019-02-10T21:16:07.025Z,89.56
2019-02-10T21:21:07.661Z,88.61
2019-02-10T21:26:07.282Z,87.26
2019-02-10T21:31:07.520Z,88.13
2019-02-10T21:35:07.283Z,87.76
2019-02-10T21:40:07.369Z,87.55
2019-02-10T21:45:08.116Z,87.9
2019-02-10T21:50:07.465Z,87.26
2019-02-10T21:55:07.070Z,86.06
2019-02-10T22:00:09.963Z,85.45
2019-02-10T22:05:07.173Z,84.4
2019-02-10T22:09:07.242Z,84.69
2019-02-10T22:14:06.803Z,82.87
2019-02-10T22:19:07.024Z,82.52
2019-02-10T22:24:06.675Z,82.29
2019-02-10T22:29:07.334Z,82.74
2019-02-10T22:34:06.680Z,82.59
2019-02-10T22:39:07.562Z,82.64
2019-02-10T22:44:07.011Z,81.35
2019-02-10T22:48:06.972Z,82.28
2019-02-10T22:53:07.521Z,82.48
2019-02-10T22:58:06.997Z,80.86
2019-02-10T23:03:06.842Z,81.43
2019-02-10T23:08:07.407Z,81.1
2019-02-10T23:13:07.523Z,80.49
2019-02-10T23:18:06.738Z,80.99
2019-02-10T23:22:07.559Z,81.18
2019-02-10T23:27:07.237Z,79.94
2019-02-10T23:32:07.543Z,80.72
2019-02-10T23:37:07.047Z,81.64
2019-02-10T23:42:07.220Z,83.36
2019-02-10T23:47:06.653Z,84.15
2019-02-10T23:52:07.320Z,85.82
2019-02-10T23:57:06.932Z,85.82
